Terminal Aerodrome Forecast
Issued by NWS Shreveport, LA

Home | Current Version | Previous Version | Text Only | Print | Product List | Glossary On
Versions: 1 2 3 4 5 6 7 8 9 10 11 12 13 14 15 16
175
FTUS44 KSHV 261140
TAFSHV
TAF
KSHV 261140Z 2612/2712 30005KT P6SM SKC
      TEMPO 2612/2615 BKN026
     FM261500 33008KT P6SM SCT035
     FM270000 33004KT P6SM SCT100 BKN250=

USA.gov is the U.S. government's official web portal to all federal, state and local government web resources and services.